createdAt,value
2017-07-03T00:00:08.406Z,938.81
2017-07-03T00:00:27.793Z,938.79
2017-07-03T00:00:47.088Z,938.82
2017-07-03T00:01:06.388Z,938.78
2017-07-03T00:01:25.689Z,938.8
2017-07-03T00:01:44.976Z,938.84
2017-07-03T00:02:04.299Z,938.8
2017-07-03T00:02:23.620Z,938.8
2017-07-03T00:02:42.931Z,938.86
2017-07-03T00:03:02.225Z,938.82
2017-07-03T00:03:21.009Z,938.78
2017-07-03T00:03:40.333Z,938.81
2017-07-03T00:03:59.139Z,938.81
2017-07-03T00:04:18.437Z,938.88
2017-07-03T00:04:37.235Z,938.84
2017-07-03T00:04:56.560Z,938.85
2017-07-03T00:05:15.845Z,938.86
2017-07-03T00:05:34.615Z,938.86
2017-07-03T00:05:53.941Z,938.85
2017-07-03T00:06:13.263Z,938.84
2017-07-03T00:06:32.606Z,938.87
2017-07-03T00:06:51.899Z,938.89
2017-07-03T00:07:10.173Z,938.92
2017-07-03T00:07:28.970Z,938.93
2017-07-03T00:07:47.780Z,938.86
2017-07-03T00:08:07.068Z,938.92
2017-07-03T00:08:26.390Z,938.89
2017-07-03T00:08:45.730Z,938.92
2017-07-03T00:09:05.028Z,938.93
2017-07-03T00:09:24.371Z,938.94
2017-07-03T00:09:43.691Z,938.94
2017-07-03T00:10:03.002Z,938.9
2017-07-03T00:10:22.373Z,938.93
2017-07-03T00:10:41.682Z,938.92
2017-07-03T00:11:01.002Z,938.9
2017-07-03T00:11:20.305Z,938.92
2017-07-03T00:11:39.653Z,938.91
2017-07-03T00:11:58.955Z,938.92
2017-07-03T00:12:17.730Z,938.86
2017-07-03T00:12:37.054Z,938.91
2017-07-03T00:12:56.360Z,938.9
2017-07-03T00:13:15.155Z,938.92
2017-07-03T00:13:33.418Z,938.9
2017-07-03T00:13:52.215Z,938.9
2017-07-03T00:14:11.526Z,938.83
2017-07-03T00:14:30.839Z,938.9
2017-07-03T00:14:50.212Z,938.9
2017-07-03T00:15:09.537Z,938.87
2017-07-03T00:15:28.844Z,938.91
2017-07-03T00:15:48.179Z,938.95
2017-07-03T00:16:07.516Z,938.93
2017-07-03T00:16:26.832Z,938.93
2017-07-03T00:16:46.183Z,938.95
2017-07-03T00:17:05.482Z,938.94
2017-07-03T00:17:24.825Z,938.92
2017-07-03T00:17:44.129Z,938.92
2017-07-03T00:18:03.440Z,938.92
2017-07-03T00:18:22.743Z,938.94
2017-07-03T00:18:42.061Z,938.88
2017-07-03T00:19:01.395Z,938.93
2017-07-03T00:19:20.717Z,938.96
2017-07-03T00:19:40.042Z,938.92
2017-07-03T00:19:59.346Z,938.98
2017-07-03T00:20:18.170Z,938.89
2017-07-03T00:20:37.509Z,938.97
2017-07-03T00:20:56.831Z,938.98
2017-07-03T00:21:16.130Z,939
2017-07-03T00:21:34.923Z,938.96
2017-07-03T00:21:54.258Z,938.94
2017-07-03T00:22:13.052Z,938.95
2017-07-03T00:22:32.336Z,938.83
2017-07-03T00:22:51.769Z,938.96
2017-07-03T00:23:15.758Z,938.95
2017-07-03T00:23:35.826Z,938.9
2017-07-03T00:23:55.861Z,938.96
2017-07-03T00:24:15.903Z,938.93
2017-07-03T00:24:35.365Z,938.89
2017-07-03T00:24:55.431Z,938.94
2017-07-03T00:25:15.447Z,938.85
2017-07-03T00:25:34.913Z,938.89
2017-07-03T00:25:54.949Z,938.91
2017-07-03T00:26:15.005Z,938.84
2017-07-03T00:26:35.133Z,938.89
2017-07-03T00:26:55.136Z,938.88
2017-07-03T00:27:15.183Z,938.76
2017-07-03T00:27:35.241Z,938.88
2017-07-03T00:27:55.271Z,938.9
2017-07-03T00:28:15.284Z,938.86
2017-07-03T00:28:35.320Z,938.9
2017-07-03T00:28:54.809Z,938.94
2017-07-03T00:29:14.835Z,938.87
2017-07-03T00:29:34.880Z,938.94
2017-07-03T00:29:54.347Z,938.96
2017-07-03T00:30:14.363Z,938.97
2017-07-03T00:30:34.386Z,938.95
2017-07-03T00:30:54.384Z,938.91
2017-07-03T00:31:14.398Z,938.91
2017-07-03T00:31:34.611Z,938.93
2017-07-03T00:31:54.682Z,938.91
2017-07-03T00:32:13.668Z,938.9
2017-07-03T00:32:33.821Z,938.94
2017-07-03T00:32:53.892Z,938.94
2017-07-03T00:33:14.516Z,938.94
2017-07-03T00:33:34.993Z,938.96
2017-07-03T00:33:55.686Z,938.96
2017-07-03T00:34:15.759Z,938.96
2017-07-03T00:34:35.223Z,938.97
2017-07-03T00:34:55.243Z,939
2017-07-03T00:35:15.289Z,938.96
2017-07-03T00:35:34.744Z,938.84
2017-07-03T00:35:54.201Z,938.93
2017-07-03T00:36:13.647Z,938.85
2017-07-03T00:36:33.684Z,938.97
2017-07-03T00:36:53.718Z,939
2017-07-03T00:37:13.721Z,939.01
2017-07-03T00:37:33.741Z,939.05
2017-07-03T00:37:53.753Z,939.01
2017-07-03T00:38:13.769Z,938.99
2017-07-03T00:38:33.791Z,939.02
2017-07-03T00:38:53.221Z,939.02
2017-07-03T00:39:13.223Z,939.02
2017-07-03T00:39:32.671Z,939.07
2017-07-03T00:39:52.737Z,939.06
2017-07-03T00:40:12.737Z,939.03
2017-07-03T00:40:32.205Z,939.05
2017-07-03T00:40:52.228Z,939.08
2017-07-03T00:41:12.255Z,939.05
2017-07-03T00:41:31.680Z,939.06
2017-07-03T00:41:51.699Z,939.1
2017-07-03T00:42:11.146Z,939.11
2017-07-03T00:42:31.152Z,939.07
2017-07-03T00:42:51.197Z,939.08
2017-07-03T00:43:11.213Z,939.08
2017-07-03T00:43:31.231Z,939.07
2017-07-03T00:43:50.711Z,939.04
2017-07-03T00:44:10.745Z,939.09
2017-07-03T00:44:30.768Z,939.08
2017-07-03T00:44:50.212Z,939.04
2017-07-03T00:45:10.235Z,939.07
2017-07-03T00:45:30.261Z,939.06
2017-07-03T00:45:50.278Z,938.99
2017-07-03T00:46:10.271Z,939.03
2017-07-03T00:46:30.290Z,939
2017-07-03T00:46:50.338Z,938.99
2017-07-03T00:47:10.361Z,939.04
2017-07-03T00:47:30.367Z,939
2017-07-03T00:47:50.382Z,939.02
2017-07-03T00:48:09.842Z,939.03
2017-07-03T00:48:29.874Z,939.05
2017-07-03T00:48:49.896Z,939.03
2017-07-03T00:49:09.925Z,938.98
2017-07-03T00:49:29.951Z,939.02
2017-07-03T00:49:49.996Z,939.04
2017-07-03T00:50:10.023Z,939.03
2017-07-03T00:50:30.050Z,939.04
2017-07-03T00:50:50.053Z,939.06
2017-07-03T00:51:08.955Z,939.01
2017-07-03T00:51:28.973Z,939.01
2017-07-03T00:51:48.415Z,938.96
2017-07-03T00:52:08.468Z,938.96
2017-07-03T00:52:28.473Z,939
2017-07-03T00:52:47.942Z,938.95
2017-07-03T00:53:07.989Z,939
2017-07-03T00:53:28.021Z,938.98
2017-07-03T00:53:48.063Z,938.99
2017-07-03T00:54:08.080Z,938.89
2017-07-03T00:54:28.120Z,938.98
2017-07-03T00:54:48.126Z,938.95
2017-07-03T00:55:07.572Z,938.95
2017-07-03T00:55:27.587Z,938.95
2017-07-03T00:55:47.038Z,938.98
2017-07-03T00:56:07.059Z,938.97
2017-07-03T00:56:27.071Z,938.94
2017-07-03T00:56:47.083Z,938.91
2017-07-03T00:57:07.104Z,938.97
2017-07-03T00:57:27.112Z,938.96
2017-07-03T00:57:46.554Z,938.97
2017-07-03T00:58:06.560Z,938.99
2017-07-03T00:58:26.571Z,938.98
2017-07-03T00:58:46.606Z,938.95
2017-07-03T00:59:06.056Z,938.98
2017-07-03T00:59:25.528Z,939.01
2017-07-03T00:59:45.532Z,939
2017-07-03T01:00:05.560Z,938.93
2017-07-03T01:00:25.580Z,938.86
2017-07-03T01:00:45.603Z,938.96
2017-07-03T01:01:05.624Z,938.99
2017-07-03T01:01:25.617Z,938.96
2017-07-03T01:01:45.051Z,938.99
2017-07-03T01:02:05.080Z,938.97
2017-07-03T01:02:25.092Z,938.98
2017-07-03T01:02:45.123Z,938.83
2017-07-03T01:03:05.188Z,939.03
2017-07-03T01:03:24.646Z,938.99
2017-07-03T01:03:44.645Z,938.91
2017-07-03T01:04:04.636Z,939
2017-07-03T01:04:24.661Z,938.94
2017-07-03T01:04:44.705Z,938.98
2017-07-03T01:05:04.721Z,938.97
2017-07-03T01:05:24.739Z,939.02
2017-07-03T01:05:44.749Z,938.99
2017-07-03T01:06:04.777Z,938.96
2017-07-03T01:06:24.234Z,939.01
2017-07-03T01:06:44.273Z,939.01
2017-07-03T01:07:04.298Z,938.94
2017-07-03T01:07:23.747Z,938.98
2017-07-03T01:07:43.781Z,938.93
2017-07-03T01:08:03.802Z,938.98
2017-07-03T01:08:23.807Z,939
2017-07-03T01:08:43.254Z,939
2017-07-03T01:09:03.274Z,938.98
2017-07-03T01:09:23.314Z,938.97
2017-07-03T01:09:43.339Z,938.99
2017-07-03T01:10:03.351Z,939.01
2017-07-03T01:10:23.395Z,938.99
2017-07-03T01:10:42.845Z,939.01
2017-07-03T01:11:02.893Z,939.01
2017-07-03T01:11:22.911Z,939.05
2017-07-03T01:11:42.940Z,939.01
2017-07-03T01:12:02.951Z,939.03
2017-07-03T01:12:22.434Z,939.07
2017-07-03T01:12:42.500Z,939
2017-07-03T01:13:02.509Z,939.04
2017-07-03T01:13:22.541Z,939.05
2017-07-03T01:13:42.554Z,939
2017-07-03T01:14:02.583Z,939.05
2017-07-03T01:14:22.038Z,938.95
2017-07-03T01:14:41.509Z,939.02
2017-07-03T01:15:01.513Z,939.01
2017-07-03T01:15:21.525Z,939.05
2017-07-03T01:15:41.544Z,939.03
2017-07-03T01:16:01.583Z,939.01
2017-07-03T01:16:21.611Z,939.03
2017-07-03T01:16:41.633Z,939.05
2017-07-03T01:17:01.650Z,939.09
2017-07-03T01:17:21.639Z,939.1
2017-07-03T01:17:41.697Z,939.05
2017-07-03T01:18:01.717Z,939.12
2017-07-03T01:18:21.735Z,939.07
2017-07-03T01:18:45.035Z,939
2017-07-03T01:19:05.039Z,939.13
2017-07-03T01:19:25.074Z,939.08
2017-07-03T01:19:45.108Z,939.1
2017-07-03T01:20:05.129Z,939.07
2017-07-03T01:20:24.591Z,939.09
2017-07-03T01:20:44.075Z,939.11
2017-07-03T01:21:04.117Z,939.11
2017-07-03T01:21:24.139Z,939.14
2017-07-03T01:21:44.162Z,939.15
2017-07-03T01:22:03.591Z,939.06
2017-07-03T01:22:23.059Z,939.11
2017-07-03T01:22:43.119Z,939.06
2017-07-03T01:23:03.146Z,939.04
2017-07-03T01:23:22.059Z,939.07
2017-07-03T01:23:42.096Z,939.05
2017-07-03T01:24:02.111Z,939.1
2017-07-03T01:24:22.130Z,939.05
2017-07-03T01:24:42.157Z,939.07
2017-07-03T01:25:02.166Z,939.19
2017-07-03T01:25:21.622Z,939.16
2017-07-03T01:25:41.686Z,939.16
2017-07-03T01:26:01.681Z,939.13
2017-07-03T01:26:21.710Z,939.1
2017-07-03T01:26:41.177Z,939.15
2017-07-03T01:27:01.194Z,939.14
2017-07-03T01:27:21.228Z,939.18
2017-07-03T01:27:40.683Z,939.15
2017-07-03T01:28:00.709Z,939.15
2017-07-03T01:28:20.730Z,939.12
2017-07-03T01:28:40.742Z,939.16
2017-07-03T01:29:00.814Z,939.17
2017-07-03T01:29:20.862Z,939.19
2017-07-03T01:29:40.885Z,939.21
2017-07-03T01:30:00.916Z,939.18
2017-07-03T01:30:20.952Z,939.17
2017-07-03T01:30:40.986Z,939.15
2017-07-03T01:31:01.004Z,939.2
2017-07-03T01:31:21.008Z,939.22
2017-07-03T01:31:40.461Z,939.22
2017-07-03T01:32:00.537Z,939.23
2017-07-03T01:32:19.994Z,939.27
2017-07-03T01:32:38.892Z,939.3
2017-07-03T01:32:58.945Z,939.17
2017-07-03T01:33:18.972Z,939.25
2017-07-03T01:33:38.450Z,939.26
2017-07-03T01:33:58.490Z,939.26
2017-07-03T01:34:18.532Z,939.27
2017-07-03T01:34:38.557Z,939.32
2017-07-03T01:34:58.596Z,939.26
2017-07-03T01:35:18.662Z,939.24
2017-07-03T01:35:38.706Z,939.2
2017-07-03T01:35:58.731Z,939.24
2017-07-03T01:36:18.805Z,939.21
2017-07-03T01:36:38.264Z,939.27
2017-07-03T01:36:58.282Z,939.21
2017-07-03T01:37:18.328Z,939.18
2017-07-03T01:37:38.362Z,939.24
2017-07-03T01:37:58.402Z,939.24
2017-07-03T01:38:18.484Z,939.15
2017-07-03T01:38:38.546Z,939.24
2017-07-03T01:38:58.558Z,939.23
2017-07-03T01:39:18.581Z,939.23
2017-07-03T01:39:38.627Z,939.26
2017-07-03T01:39:58.641Z,939.28
2017-07-03T01:40:18.668Z,939.25
2017-07-03T01:40:38.697Z,939.26
2017-07-03T01:40:58.743Z,939.18
2017-07-03T01:41:18.195Z,939.25
2017-07-03T01:41:38.214Z,939.26
2017-07-03T01:42:17.705Z,939.22
2017-07-03T01:42:37.735Z,939.24
2017-07-03T01:42:57.732Z,939.21
2017-07-03T01:43:17.752Z,939.23
2017-07-03T01:43:37.759Z,939.24
2017-07-03T01:43:57.252Z,939.24
2017-07-03T01:44:17.268Z,939.24
2017-07-03T01:44:37.289Z,939.22
2017-07-03T01:44:57.335Z,939.25
2017-07-03T01:45:17.379Z,939.26
2017-07-03T01:45:36.840Z,939.19
2017-07-03T01:45:56.849Z,939.16
2017-07-03T01:46:16.868Z,939.2
2017-07-03T01:46:36.925Z,939.17
2017-07-03T01:46:56.931Z,939.19
2017-07-03T01:47:17.118Z,939.14
2017-07-03T01:47:37.177Z,939.19
2017-07-03T01:47:57.204Z,939.21
2017-07-03T01:48:17.222Z,939.26
2017-07-03T01:48:36.726Z,939.25
2017-07-03T01:48:56.733Z,939.24
2017-07-03T01:49:16.799Z,939.22
2017-07-03T01:49:36.835Z,939.22
2017-07-03T01:49:56.310Z,939.27
2017-07-03T01:50:16.324Z,939.28
2017-07-03T01:50:35.785Z,939.23
2017-07-03T01:50:55.792Z,939.24
2017-07-03T01:51:15.832Z,939.25
2017-07-03T01:51:35.837Z,939.25
2017-07-03T01:51:55.836Z,939.21
2017-07-03T01:52:15.857Z,939.22
2017-07-03T01:52:35.334Z,939.22
2017-07-03T01:52:55.342Z,939.13
2017-07-03T01:53:15.355Z,939.21
2017-07-03T01:53:35.376Z,939.18
2017-07-03T01:53:55.387Z,939.22
2017-07-03T01:54:14.849Z,939.22
2017-07-03T01:54:34.879Z,939.2
2017-07-03T01:54:54.888Z,939.22
2017-07-03T01:55:14.914Z,939.19
2017-07-03T01:55:34.948Z,939.19
2017-07-03T01:55:54.389Z,939.18
2017-07-03T01:56:14.460Z,939.1
2017-07-03T01:56:34.484Z,939.04
2017-07-03T01:56:54.524Z,939.07
2017-07-03T01:57:14.556Z,939.12
2017-07-03T01:57:34.668Z,939.14
2017-07-03T01:57:54.717Z,939.08
2017-07-03T01:58:14.738Z,939.16
2017-07-03T01:58:34.189Z,939.16
2017-07-03T01:58:54.234Z,939.14
2017-07-03T01:59:14.327Z,939.14
2017-07-03T01:59:34.407Z,939.09
2017-07-03T01:59:54.450Z,939.08
2017-07-03T02:00:14.474Z,939.12
2017-07-03T02:00:34.497Z,939.09
2017-07-03T02:00:54.548Z,939.15
2017-07-03T02:01:14.598Z,939.18
2017-07-03T02:01:34.592Z,939.17
2017-07-03T02:01:54.624Z,939.17
2017-07-03T02:02:14.074Z,939.13
2017-07-03T02:02:34.105Z,939.16
2017-07-03T02:02:54.137Z,939.2
2017-07-03T02:03:14.179Z,939.12
2017-07-03T02:03:33.127Z,939.13
2017-07-03T02:03:52.982Z,939.1
2017-07-03T02:04:12.468Z,939.14
2017-07-03T02:04:32.509Z,939.1
2017-07-03T02:04:52.508Z,939.14
2017-07-03T02:05:12.555Z,939.1
2017-07-03T02:05:32.031Z,939.11
2017-07-03T02:05:52.045Z,939.05
2017-07-03T02:06:11.490Z,939.09
2017-07-03T02:06:31.498Z,939.07
2017-07-03T02:06:51.536Z,939.1
2017-07-03T02:07:11.550Z,939.02
2017-07-03T02:07:31.560Z,939.01
2017-07-03T02:07:51.582Z,939.1
2017-07-03T02:08:11.579Z,939.09
2017-07-03T02:08:31.616Z,939.09
2017-07-03T02:08:51.665Z,939.09
2017-07-03T02:09:11.701Z,939.1
2017-07-03T02:09:31.721Z,939.1
2017-07-03T02:09:51.764Z,939.1
2017-07-03T02:10:11.818Z,939.08
2017-07-03T02:10:31.842Z,939.07
2017-07-03T02:10:51.854Z,939.1
2017-07-03T02:11:11.892Z,939.1
2017-07-03T02:11:31.932Z,939.12
2017-07-03T02:11:51.944Z,939.06
2017-07-03T02:12:10.309Z,939.08
2017-07-03T02:12:29.787Z,939.1
2017-07-03T02:12:49.806Z,939.13
2017-07-03T02:13:09.855Z,939.12
2017-07-03T02:13:29.874Z,939.09
2017-07-03T02:13:49.874Z,939.13
2017-07-03T02:14:09.907Z,939.17
2017-07-03T02:14:29.943Z,939.16
2017-07-03T02:14:49.962Z,938.99
2017-07-03T02:15:09.419Z,939.18
2017-07-03T02:15:29.434Z,939.16
2017-07-03T02:15:49.465Z,939.18
2017-07-03T02:16:09.494Z,939.16
2017-07-03T02:16:29.503Z,939.15
2017-07-03T02:16:49.509Z,939.16
2017-07-03T02:17:09.553Z,939.19
2017-07-03T02:17:29.586Z,939.19
2017-07-03T02:17:49.031Z,939.22
2017-07-03T02:18:09.033Z,939.23
2017-07-03T02:18:29.028Z,939.2
2017-07-03T02:18:49.059Z,939.22
2017-07-03T02:19:08.530Z,939.24
2017-07-03T02:19:27.992Z,939.24
2017-07-03T02:19:48.014Z,939.24
2017-07-03T02:20:07.484Z,939.23
2017-07-03T02:20:27.498Z,939.22
2017-07-03T02:20:47.511Z,939.28
2017-07-03T02:21:07.523Z,939.3
2017-07-03T02:21:26.964Z,939.28
2017-07-03T02:21:45.876Z,939.26
2017-07-03T02:22:05.891Z,939.24
2017-07-03T02:22:25.965Z,939.25
2017-07-03T02:22:45.982Z,939.26
2017-07-03T02:23:06.016Z,939.21
2017-07-03T02:23:26.022Z,939.2
2017-07-03T02:23:46.081Z,939.25
2017-07-03T02:24:06.103Z,939.25
2017-07-03T02:24:25.590Z,939.22
2017-07-03T02:24:45.607Z,939.21
2017-07-03T02:25:05.634Z,939.2
2017-07-03T02:25:25.627Z,939.22
2017-07-03T02:25:45.069Z,939.2
2017-07-03T02:26:05.078Z,939.22
2017-07-03T02:26:24.515Z,939.19
2017-07-03T02:26:44.527Z,939.17
2017-07-03T02:27:04.565Z,939.17
2017-07-03T02:27:24.011Z,939.22
2017-07-03T02:27:44.044Z,939.21
2017-07-03T02:28:03.497Z,939.22
2017-07-03T02:28:23.559Z,939.19
2017-07-03T02:28:43.581Z,939.15
2017-07-03T02:29:03.042Z,939.16
2017-07-03T02:29:23.068Z,939.19
2017-07-03T02:29:43.154Z,939.22
2017-07-03T02:30:03.185Z,939.16
2017-07-03T02:30:23.231Z,939.18
2017-07-03T02:30:43.284Z,939.17
2017-07-03T02:31:03.323Z,939.2
2017-07-03T02:31:23.346Z,939.15
2017-07-03T02:31:43.362Z,939.01
2017-07-03T02:32:03.376Z,939.07
2017-07-03T02:32:23.399Z,939.1
2017-07-03T02:32:43.430Z,939.11
2017-07-03T02:33:03.435Z,939.12
2017-07-03T02:33:22.329Z,939.17
2017-07-03T02:33:42.341Z,939.15
2017-07-03T02:34:02.385Z,939.19
2017-07-03T02:34:22.406Z,939.14
2017-07-03T02:34:41.881Z,939.13
2017-07-03T02:35:01.934Z,939.14
2017-07-03T02:35:21.966Z,939.16
2017-07-03T02:35:41.989Z,939.15
2017-07-03T02:36:02.038Z,939.16
2017-07-03T02:36:22.066Z,939.12
2017-07-03T02:36:42.105Z,939.12
2017-07-03T02:37:02.145Z,939.15
2017-07-03T02:37:22.234Z,939.11
2017-07-03T02:37:42.269Z,939.11
2017-07-03T02:38:02.273Z,939.14
2017-07-03T02:38:22.283Z,939.14
2017-07-03T02:38:42.352Z,939.16
2017-07-03T02:39:02.339Z,939.11
2017-07-03T02:39:22.369Z,939.12
2017-07-03T02:39:42.406Z,939.14
2017-07-03T02:40:02.455Z,939.12
2017-07-03T02:40:22.454Z,939.13
2017-07-03T02:40:41.933Z,939.13
2017-07-03T02:41:01.939Z,939.15
2017-07-03T02:41:21.966Z,939.11
2017-07-03T02:41:41.968Z,939.11
2017-07-03T02:42:02.031Z,939.13
2017-07-03T02:42:22.365Z,939.19
2017-07-03T02:42:41.834Z,939.15
2017-07-03T02:43:01.890Z,939.14
2017-07-03T02:43:21.896Z,939.13
2017-07-03T02:43:41.363Z,939.15
2017-07-03T02:44:01.381Z,939.13
2017-07-03T02:44:20.832Z,939.18
2017-07-03T02:44:40.858Z,939.14
2017-07-03T02:45:00.893Z,939.13
2017-07-03T02:45:20.943Z,939.14
2017-07-03T02:45:40.948Z,939.14
2017-07-03T02:46:00.992Z,939.18
2017-07-03T02:46:21.054Z,939.18
2017-07-03T02:46:41.092Z,939.17
2017-07-03T02:47:01.639Z,939.13
2017-07-03T02:47:21.678Z,939.16
2017-07-03T02:47:41.703Z,939.16
2017-07-03T02:48:01.726Z,939.17
2017-07-03T02:48:21.763Z,939.14
2017-07-03T02:48:41.222Z,939.16
2017-07-03T02:49:00.685Z,939.17
2017-07-03T02:49:20.758Z,939.13
2017-07-03T02:49:40.797Z,939.15
2017-07-03T02:50:00.240Z,939.16
2017-07-03T02:50:19.654Z,939.15
2017-07-03T02:50:39.663Z,939.16
2017-07-03T02:50:59.697Z,939.14
2017-07-03T02:51:19.724Z,939.17
2017-07-03T02:51:39.770Z,939.16
2017-07-03T02:51:59.790Z,939.12
2017-07-03T02:52:19.820Z,939.13
2017-07-03T02:52:39.316Z,939.09
2017-07-03T02:52:59.343Z,939.1
2017-07-03T02:53:19.375Z,939.08
2017-07-03T02:53:39.430Z,939.1
2017-07-03T02:53:59.441Z,939.06
2017-07-03T02:54:19.446Z,939.05
2017-07-03T02:54:39.490Z,939.1
2017-07-03T02:54:59.543Z,939.08
2017-07-03T02:55:19.033Z,939.06
2017-07-03T02:55:39.065Z,939.05
2017-07-03T02:55:59.106Z,939.06
2017-07-03T02:56:19.172Z,939.05
2017-07-03T02:56:39.261Z,939.05
2017-07-03T02:56:59.279Z,939.03
2017-07-03T02:57:19.315Z,939.04
2017-07-03T02:57:39.359Z,939.03
2017-07-03T02:57:59.468Z,939.05
2017-07-03T02:58:19.484Z,939.05
2017-07-03T02:58:39.750Z,939.05
2017-07-03T02:58:59.821Z,939.04
2017-07-03T02:59:19.849Z,938.98
2017-07-03T02:59:39.859Z,939.06
2017-07-03T02:59:59.941Z,939.03
2017-07-03T03:00:19.967Z,939.02
2017-07-03T03:00:40.008Z,939.09
2017-07-03T03:01:00.010Z,939.07
2017-07-03T03:01:19.461Z,939.06
2017-07-03T03:01:39.463Z,939.05
2017-07-03T03:01:58.899Z,939.02
2017-07-03T03:02:18.902Z,939.02
2017-07-03T03:02:38.922Z,939.02
2017-07-03T03:02:58.913Z,939.06
2017-07-03T03:03:18.952Z,939
2017-07-03T03:03:38.967Z,938.97
2017-07-03T03:03:58.973Z,939.06
2017-07-03T03:04:18.996Z,938.95
2017-07-03T03:04:39.020Z,939.06
2017-07-03T03:04:59.037Z,939.06
2017-07-03T03:05:19.083Z,938.98
2017-07-03T03:05:39.106Z,939.02
2017-07-03T03:05:58.563Z,938.97
2017-07-03T03:06:18.598Z,938.96
2017-07-03T03:06:38.643Z,938.97
2017-07-03T03:06:58.660Z,938.96
2017-07-03T03:07:18.117Z,938.98
2017-07-03T03:07:38.159Z,938.97
2017-07-03T03:07:58.161Z,939
2017-07-03T03:08:18.183Z,938.92
2017-07-03T03:08:38.201Z,938.95
2017-07-03T03:08:58.222Z,938.98
2017-07-03T03:09:18.237Z,938.99
2017-07-03T03:09:38.257Z,938.94
2017-07-03T03:09:58.267Z,938.96
2017-07-03T03:10:18.286Z,938.97
2017-07-03T03:10:38.299Z,938.91
2017-07-03T03:10:57.765Z,938.97
2017-07-03T03:11:17.817Z,938.96
2017-07-03T03:11:37.838Z,938.92
2017-07-03T03:11:57.992Z,938.96
2017-07-03T03:12:16.874Z,938.91
2017-07-03T03:12:36.873Z,938.95
2017-07-03T03:12:56.899Z,938.97
2017-07-03T03:13:16.928Z,938.95
2017-07-03T03:13:36.946Z,938.95
2017-07-03T03:13:56.951Z,938.97
2017-07-03T03:14:16.984Z,938.97
2017-07-03T03:14:36.998Z,938.97
2017-07-03T03:14:56.500Z,938.91
2017-07-03T03:15:16.544Z,938.96
2017-07-03T03:15:34.944Z,938.89
2017-07-03T03:15:54.990Z,938.9
2017-07-03T03:16:15.583Z,938.96
2017-07-03T03:16:35.633Z,938.87
2017-07-03T03:16:55.661Z,938.87
2017-07-03T03:17:15.713Z,938.88
2017-07-03T03:17:35.755Z,938.85
2017-07-03T03:17:55.781Z,938.85
2017-07-03T03:18:15.827Z,938.89
2017-07-03T03:18:35.289Z,938.85
2017-07-03T03:18:55.338Z,938.88
2017-07-03T03:19:15.374Z,938.89
2017-07-03T03:19:35.425Z,938.92
2017-07-03T03:19:55.452Z,938.9
2017-07-03T03:20:15.484Z,938.89
2017-07-03T03:20:34.958Z,938.88
2017-07-03T03:20:54.975Z,938.86
2017-07-03T03:21:13.874Z,938.87
2017-07-03T03:21:33.908Z,938.83
2017-07-03T03:21:53.922Z,938.85
2017-07-03T03:22:13.400Z,938.81
2017-07-03T03:22:32.852Z,938.83
2017-07-03T03:22:52.864Z,938.87
2017-07-03T03:23:12.909Z,938.82
2017-07-03T03:23:32.926Z,938.85
2017-07-03T03:23:52.931Z,938.88
2017-07-03T03:24:12.933Z,938.84
2017-07-03T03:24:32.937Z,938.84
2017-07-03T03:24:52.980Z,938.84
2017-07-03T03:25:13.022Z,938.84
2017-07-03T03:25:33.047Z,938.88
2017-07-03T03:25:53.040Z,938.87
2017-07-03T03:26:13.080Z,938.87
2017-07-03T03:26:33.074Z,938.84
2017-07-03T03:26:52.514Z,938.91
2017-07-03T03:27:11.941Z,938.88
2017-07-03T03:27:31.950Z,938.9
2017-07-03T03:27:51.983Z,938.87
2017-07-03T03:28:11.990Z,938.82
2017-07-03T03:28:31.993Z,938.8
2017-07-03T03:28:52.026Z,938.83
2017-07-03T03:29:10.907Z,938.86
2017-07-03T03:29:30.379Z,938.77
2017-07-03T03:29:50.412Z,938.74
2017-07-03T03:30:10.454Z,938.81
2017-07-03T03:30:29.929Z,938.79
2017-07-03T03:30:49.962Z,938.82
2017-07-03T03:31:09.972Z,938.78
2017-07-03T03:31:29.991Z,938.8
2017-07-03T03:31:49.433Z,938.89
2017-07-03T03:32:09.447Z,938.87
2017-07-03T03:32:29.501Z,938.84
2017-07-03T03:32:49.527Z,938.79
2017-07-03T03:33:09.534Z,938.89
2017-07-03T03:33:28.969Z,938.89
2017-07-03T03:33:48.969Z,938.87
2017-07-03T03:34:08.415Z,938.88
2017-07-03T03:34:28.408Z,938.84
2017-07-03T03:34:48.429Z,938.83
2017-07-03T03:35:08.456Z,938.8
2017-07-03T03:35:28.482Z,938.8
2017-07-03T03:35:48.495Z,938.83
2017-07-03T03:36:08.506Z,938.85
2017-07-03T03:36:28.524Z,938.79
2017-07-03T03:36:47.400Z,938.84
2017-07-03T03:37:07.393Z,938.77
2017-07-03T03:37:27.405Z,938.82
2017-07-03T03:37:46.857Z,938.76
2017-07-03T03:38:06.878Z,938.78
2017-07-03T03:38:26.920Z,938.78
2017-07-03T03:38:46.952Z,938.8
2017-07-03T03:39:07.013Z,938.7
2017-07-03T03:39:27.029Z,938.7
2017-07-03T03:39:47.057Z,938.72
2017-07-03T03:40:07.077Z,938.73
2017-07-03T03:40:27.103Z,938.71
2017-07-03T03:40:47.142Z,938.7
2017-07-03T03:41:06.603Z,938.72
2017-07-03T03:41:26.089Z,938.69
2017-07-03T03:41:46.086Z,938.7
2017-07-03T03:42:06.097Z,938.66
2017-07-03T03:42:25.537Z,938.67
2017-07-03T03:42:44.963Z,938.66
2017-07-03T03:43:04.996Z,938.66
2017-07-03T03:43:24.450Z,938.63
2017-07-03T03:43:43.930Z,938.68
2017-07-03T03:44:03.956Z,938.76
2017-07-03T03:44:23.984Z,938.73
2017-07-03T03:44:44.007Z,938.72
2017-07-03T03:45:04.047Z,938.73
2017-07-03T03:45:24.071Z,938.73
2017-07-03T03:45:43.540Z,938.7
2017-07-03T03:46:03.574Z,938.59
2017-07-03T03:46:23.581Z,938.65
2017-07-03T03:46:43.597Z,938.64
2017-07-03T03:47:03.614Z,938.64
2017-07-03T03:47:23.647Z,938.67
2017-07-03T03:47:43.088Z,938.7
2017-07-03T03:48:03.127Z,938.7
2017-07-03T03:48:23.167Z,938.69
2017-07-03T03:48:43.183Z,938.55
2017-07-03T03:49:03.198Z,938.62
2017-07-03T03:49:23.239Z,938.72
2017-07-03T03:49:43.285Z,938.74
2017-07-03T03:50:03.302Z,938.73
2017-07-03T03:50:22.748Z,938.7
2017-07-03T03:50:42.216Z,938.72
2017-07-03T03:51:02.218Z,938.74
2017-07-03T03:51:22.222Z,938.76
2017-07-03T03:51:42.208Z,938.73
2017-07-03T03:52:02.222Z,938.77
2017-07-03T03:52:22.227Z,938.78
2017-07-03T03:52:42.242Z,938.78
2017-07-03T03:53:02.237Z,938.77
2017-07-03T03:53:22.246Z,938.79
2017-07-03T03:53:42.286Z,938.74
2017-07-03T03:54:01.730Z,938.71
2017-07-03T03:54:21.748Z,938.78
2017-07-03T03:54:41.200Z,938.73
2017-07-03T03:55:01.243Z,938.73
2017-07-03T03:55:20.721Z,938.74
2017-07-03T03:55:40.757Z,938.75
2017-07-03T03:56:00.779Z,938.76
2017-07-03T03:56:20.270Z,938.75
2017-07-03T03:56:40.285Z,938.73
2017-07-03T03:57:00.301Z,938.74
2017-07-03T03:57:20.342Z,938.72
2017-07-03T03:57:40.365Z,938.76
2017-07-03T03:58:00.376Z,938.73
2017-07-03T03:58:20.397Z,938.72
2017-07-03T03:58:40.418Z,938.7
2017-07-03T03:59:00.436Z,938.7
2017-07-03T03:59:20.487Z,938.71
2017-07-03T03:59:40.498Z,938.68
2017-07-03T03:59:59.394Z,938.62
2017-07-03T04:00:19.404Z,938.71
2017-07-03T04:00:39.430Z,938.68
2017-07-03T04:00:59.480Z,938.73
2017-07-03T04:01:19.543Z,938.72
2017-07-03T04:01:39.580Z,938.69
2017-07-03T04:01:59.072Z,938.66
2017-07-03T04:02:19.079Z,938.67
2017-07-03T04:02:39.109Z,938.71
2017-07-03T04:02:58.544Z,938.7
2017-07-03T04:03:18.556Z,938.69
2017-07-03T04:03:38.554Z,938.69
2017-07-03T04:03:58.030Z,938.77
2017-07-03T04:04:18.075Z,938.73
2017-07-03T04:04:37.544Z,938.73
2017-07-03T04:04:57.550Z,938.74
2017-07-03T04:05:17.543Z,938.76
2017-07-03T04:05:37.030Z,938.76
2017-07-03T04:05:57.062Z,938.79
2017-07-03T04:06:17.078Z,938.75
2017-07-03T04:06:37.112Z,938.8
2017-07-03T04:06:57.138Z,938.8
2017-07-03T04:07:17.157Z,938.77
2017-07-03T04:07:36.635Z,938.75
2017-07-03T04:07:56.085Z,938.74
2017-07-03T04:08:16.115Z,938.73
2017-07-03T04:08:35.584Z,938.72
2017-07-03T04:08:55.623Z,938.77
2017-07-03T04:09:15.646Z,938.76